createdAt,value
2023-04-04T00:00:32.673Z,56.77
2023-04-04T00:03:00.579Z,56.72
2023-04-04T00:05:28.785Z,56.09
2023-04-04T00:07:56.703Z,56.49
2023-04-04T00:10:25.868Z,55.95
2023-04-04T00:12:53.664Z,55.95
2023-04-04T00:15:22.221Z,57.05
2023-04-04T00:17:50.587Z,57.23
2023-04-04T00:20:18.563Z,57.26
2023-04-04T00:22:46.417Z,56.59
2023-04-04T00:25:14.512Z,56.91
2023-04-04T00:27:43.981Z,56.51
2023-04-04T00:30:12.854Z,57.16
2023-04-04T00:32:40.757Z,57.18
2023-04-04T00:35:09.289Z,57.07
2023-04-04T00:37:37.923Z,56.75
2023-04-04T00:40:06.720Z,56.86
2023-04-04T00:42:35.090Z,56.84
2023-04-04T00:45:04.431Z,57.57
2023-04-04T00:47:32.791Z,57.07
2023-04-04T00:50:00.814Z,58.00
2023-04-04T00:52:28.850Z,58.30
2023-04-04T00:54:57.045Z,57.18
2023-04-04T00:57:25.519Z,57.25
2023-04-04T00:59:53.372Z,57.59
2023-04-04T01:02:22.596Z,58.11
2023-04-04T01:04:50.332Z,57.99
2023-04-04T01:07:18.200Z,58.16
2023-04-04T01:09:46.036Z,57.33
2023-04-04T01:12:13.861Z,58.47
2023-04-04T01:14:41.605Z,57.89
2023-04-04T01:17:09.493Z,57.96
2023-04-04T01:19:44.841Z,58.71
2023-04-04T01:22:13.716Z,57.66
2023-04-04T01:24:43.431Z,58.09
2023-04-04T01:27:13.376Z,58.38
2023-04-04T01:29:41.427Z,58.89
2023-04-04T01:32:14.173Z,58.80
2023-04-04T01:34:45.803Z,58.21
2023-04-04T01:37:19.648Z,59.09
2023-04-04T01:39:50.438Z,58.70
2023-04-04T01:42:20.842Z,58.40
2023-04-04T01:44:48.965Z,58.09
2023-04-04T01:47:17.025Z,58.37
2023-04-04T01:49:45.110Z,58.01
2023-04-04T01:52:13.068Z,58.56
2023-04-04T01:54:40.966Z,59.02
2023-04-04T01:57:08.774Z,59.36
2023-04-04T01:59:37.891Z,58.37
2023-04-04T02:02:05.860Z,58.31
2023-04-04T02:04:34.074Z,59.24
2023-04-04T02:07:02.570Z,58.75
2023-04-04T02:09:30.370Z,58.96
2023-04-04T02:11:58.266Z,58.82
2023-04-04T02:14:26.035Z,58.86
2023-04-04T02:16:55.252Z,58.78
2023-04-04T02:19:23.146Z,58.49
2023-04-04T02:21:50.912Z,57.74
2023-04-04T02:24:18.869Z,58.33
2023-04-04T02:26:46.817Z,57.70
2023-04-04T02:29:14.594Z,57.47
2023-04-04T02:31:42.504Z,58.47
2023-04-04T02:34:11.755Z,57.56
2023-04-04T02:36:39.505Z,58.57
2023-04-04T02:39:07.313Z,59.18
2023-04-04T02:41:35.078Z,58.72
2023-04-04T02:44:02.857Z,59.16
2023-04-04T02:46:30.665Z,58.05
2023-04-04T02:48:58.469Z,58.80
2023-04-04T02:51:27.844Z,58.38
2023-04-04T02:53:55.925Z,57.69
2023-04-04T02:56:23.704Z,58.11
2023-04-04T02:58:51.509Z,58.58
2023-04-04T03:01:19.457Z,58.63
2023-04-04T03:03:47.940Z,58.74
2023-04-04T03:06:15.953Z,59.05
2023-04-04T03:08:45.148Z,58.35
2023-04-04T03:11:13.479Z,59.27
2023-04-04T03:13:41.548Z,59.15
2023-04-04T03:16:09.694Z,58.93
2023-04-04T03:18:37.521Z,59.04
2023-04-04T03:21:05.308Z,58.86
2023-04-04T03:23:33.444Z,58.99
2023-04-04T03:26:02.867Z,58.26
2023-04-04T03:28:30.708Z,58.76
2023-04-04T03:30:58.806Z,58.42
2023-04-04T03:33:27.546Z,57.68
2023-04-04T03:35:55.528Z,57.61
2023-04-04T03:38:23.440Z,58.29
2023-04-04T03:40:51.425Z,57.46
2023-04-04T03:43:20.582Z,58.21
2023-04-04T03:45:49.331Z,58.29
2023-04-04T03:48:17.803Z,57.32
2023-04-04T03:50:45.587Z,58.35
2023-04-04T03:53:13.399Z,57.59
2023-04-04T03:55:42.094Z,57.38
2023-04-04T03:58:09.970Z,58.23
2023-04-04T04:00:39.297Z,58.03
2023-04-04T04:03:07.344Z,57.23
2023-04-04T04:05:35.381Z,57.96
2023-04-04T04:08:03.459Z,58.36
2023-04-04T04:10:31.298Z,57.18
2023-04-04T04:12:59.829Z,57.61
2023-04-04T04:15:27.748Z,58.17
2023-04-04T04:17:57.049Z,57.73
2023-04-04T04:20:24.890Z,58.41
2023-04-04T04:22:54.300Z,58.12
2023-04-04T04:25:22.318Z,58.70
2023-04-04T04:27:50.140Z,58.57
2023-04-04T04:30:18.005Z,58.55
2023-04-04T04:32:45.939Z,58.87
2023-04-04T04:35:15.265Z,58.41
2023-04-04T04:37:43.154Z,58.84
2023-04-04T04:40:11.788Z,58.60
2023-04-04T04:42:45.013Z,57.93
2023-04-04T04:45:13.171Z,57.93
2023-04-04T04:47:41.040Z,58.37
2023-04-04T04:50:09.666Z,57.85
2023-04-04T04:52:39.393Z,57.71
2023-04-04T04:55:08.521Z,57.89
2023-04-04T04:57:36.595Z,58.69
2023-04-04T05:00:05.025Z,57.96
2023-04-04T05:02:32.905Z,58.44
2023-04-04T05:05:00.791Z,58.33
2023-04-04T05:07:28.781Z,58.50
2023-04-04T05:09:57.998Z,58.82
2023-04-04T05:12:25.753Z,58.11
2023-04-04T05:14:53.926Z,58.61
2023-04-04T05:17:23.082Z,57.80
2023-04-04T05:19:51.789Z,58.12
2023-04-04T05:22:19.595Z,59.01
2023-04-04T05:24:47.397Z,59.15
2023-04-04T05:27:16.674Z,59.17
2023-04-04T05:29:44.511Z,58.94
2023-04-04T05:32:12.390Z,57.24
2023-04-04T05:34:40.447Z,56.73
2023-04-04T05:37:08.608Z,56.63
2023-04-04T05:39:36.790Z,57.05
2023-04-04T05:42:04.788Z,56.79
2023-04-04T05:44:33.977Z,56.12
2023-04-04T05:47:01.739Z,57.25
2023-04-04T05:49:29.565Z,56.21
2023-04-04T05:51:57.459Z,57.07
2023-04-04T05:54:25.324Z,56.96
2023-04-04T05:56:53.150Z,55.26
2023-04-04T05:59:21.213Z,55.98
2023-04-04T06:01:50.843Z,55.31
2023-04-04T06:04:18.900Z,54.74
2023-04-04T06:06:46.963Z,54.78
2023-04-04T06:09:14.776Z,54.86
2023-04-04T06:11:42.573Z,55.31
2023-04-04T06:14:10.472Z,55.23
2023-04-04T06:16:38.593Z,53.67
2023-04-04T06:19:07.837Z,53.90
2023-04-04T06:21:35.696Z,53.51
2023-04-04T06:24:03.558Z,53.31
2023-04-04T06:26:31.342Z,51.78
2023-04-04T06:28:59.174Z,52.48
2023-04-04T06:31:27.347Z,52.92
2023-04-04T06:33:55.376Z,53.26
2023-04-04T06:36:24.845Z,51.29
2023-04-04T06:38:52.686Z,52.32
2023-04-04T06:41:20.550Z,51.30
2023-04-04T06:43:48.722Z,51.83
2023-04-04T06:46:16.580Z,51.24
2023-04-04T06:48:45.020Z,50.75
2023-04-04T06:51:13.229Z,50.51
2023-04-04T06:53:42.672Z,51.49
2023-04-04T06:56:10.897Z,50.64
2023-04-04T06:58:39.666Z,50.42
2023-04-04T07:01:07.548Z,50.23
2023-04-04T07:03:35.699Z,50.67
2023-04-04T07:06:04.345Z,49.83
2023-04-04T07:08:36.223Z,50.67
2023-04-04T07:11:06.419Z,50.74
2023-04-04T07:13:35.213Z,49.48
2023-04-04T07:16:03.459Z,50.27
2023-04-04T07:18:31.510Z,49.97
2023-04-04T07:20:59.620Z,50.25
2023-04-04T07:23:27.479Z,49.04
2023-04-04T07:25:55.322Z,48.67
2023-04-04T07:28:24.543Z,49.37
2023-04-04T07:30:52.412Z,48.63
2023-04-04T07:33:20.233Z,48.40
2023-04-04T07:35:48.602Z,48.30
2023-04-04T07:38:16.429Z,47.51
2023-04-04T07:40:44.259Z,47.36
2023-04-04T07:43:12.187Z,47.47
2023-04-04T07:45:41.446Z,47.14
2023-04-04T07:48:09.376Z,46.74
2023-04-04T07:50:37.534Z,46.45
2023-04-04T07:53:05.579Z,46.20
2023-04-04T07:55:33.442Z,46.42
2023-04-04T07:58:01.221Z,45.09
2023-04-04T08:00:29.053Z,45.76
2023-04-04T08:02:59.498Z,45.10
2023-04-04T08:05:27.374Z,45.18
2023-04-04T08:07:55.243Z,44.97
2023-04-04T08:10:23.040Z,44.34
2023-04-04T08:12:50.835Z,45.69
2023-04-04T08:15:18.858Z,45.94
2023-04-04T08:17:46.682Z,44.91
2023-04-04T08:20:16.240Z,44.79
2023-04-04T08:22:44.315Z,43.60
2023-04-04T08:25:12.752Z,43.60
2023-04-04T08:27:44.053Z,43.77
2023-04-04T08:30:13.574Z,43.40
2023-04-04T08:32:42.086Z,43.57
2023-04-04T08:35:10.722Z,41.53
2023-04-04T08:37:40.142Z,42.55
2023-04-04T08:40:09.386Z,41.91
2023-04-04T08:42:37.431Z,44.26
2023-04-04T08:45:06.149Z,43.71
2023-04-04T08:47:36.053Z,42.57
2023-04-04T08:50:07.397Z,42.10
2023-04-04T08:52:36.082Z,42.00
2023-04-04T08:55:06.277Z,40.78
2023-04-04T08:57:34.351Z,39.93
2023-04-04T09:00:06.188Z,42.40
2023-04-04T09:02:38.531Z,42.10
2023-04-04T09:05:08.509Z,41.00
2023-04-04T09:07:38.911Z,41.21
2023-04-04T09:10:11.771Z,41.62
2023-04-04T09:12:41.495Z,42.25
2023-04-04T09:15:10.502Z,42.76
2023-04-04T09:17:38.501Z,42.70
2023-04-04T09:20:38.170Z,41.58
2023-04-04T09:23:07.871Z,42.80
2023-04-04T09:25:37.783Z,42.22
2023-04-04T09:28:06.248Z,40.12
2023-04-04T09:30:35.745Z,42.58
2023-04-04T09:33:06.205Z,41.65
2023-04-04T09:35:35.978Z,40.66
2023-04-04T09:38:03.840Z,39.32
2023-04-04T09:40:32.164Z,38.81
2023-04-04T09:43:03.363Z,38.99
2023-04-04T09:45:32.603Z,40.30
2023-04-04T09:48:01.167Z,37.98
2023-04-04T09:50:30.448Z,37.79
2023-04-04T09:53:00.213Z,37.26
2023-04-04T09:55:33.203Z,37.23
2023-04-04T09:58:12.801Z,35.78
2023-04-04T10:00:45.085Z,35.85
2023-04-04T10:03:15.229Z,36.24
2023-04-04T10:05:43.134Z,34.75
2023-04-04T10:08:18.679Z,34.74
2023-04-04T10:10:58.808Z,35.66
2023-04-04T10:13:40.708Z,36.40
2023-04-04T10:16:10.763Z,36.59
2023-04-04T10:18:39.284Z,36.32
2023-04-04T10:23:39.974Z,34.91
2023-04-04T10:26:07.849Z,34.70
2023-04-04T10:28:37.769Z,36.23
2023-04-04T10:31:09.142Z,35.42
2023-04-04T10:33:42.168Z,34.33
2023-04-04T10:36:13.359Z,34.09
2023-04-04T10:38:43.804Z,33.58
2023-04-04T10:41:13.732Z,35.57
2023-04-04T10:43:43.326Z,34.62
2023-04-04T10:46:13.539Z,36.40
2023-04-04T10:48:42.491Z,35.27
2023-04-04T10:51:11.700Z,34.63
2023-04-04T10:53:40.877Z,34.83
2023-04-04T10:56:09.130Z,34.54
2023-04-04T10:58:42.663Z,33.72
2023-04-04T11:01:11.248Z,33.16
2023-04-04T11:04:19.580Z,32.25
2023-04-04T11:07:12.729Z,32.15
2023-04-04T11:09:56.695Z,33.24
2023-04-04T11:12:29.956Z,34.34
2023-04-04T11:15:08.897Z,35.01
2023-04-04T11:18:04.010Z,34.40
2023-04-04T11:20:38.303Z,33.02
2023-04-04T11:23:08.901Z,34.72
2023-04-04T11:25:38.860Z,34.55
2023-04-04T11:28:09.703Z,33.02
2023-04-04T11:30:44.781Z,33.09
2023-04-04T11:33:14.384Z,32.41
2023-04-04T11:35:42.978Z,32.04
2023-04-04T11:38:15.023Z,32.11
2023-04-04T11:40:43.751Z,32.59
2023-04-04T11:43:12.995Z,32.68
2023-04-04T11:45:46.675Z,31.89
2023-04-04T11:48:17.001Z,31.74
2023-04-04T11:50:49.663Z,33.91
2023-04-04T11:53:17.689Z,33.32
2023-04-04T11:55:50.174Z,33.31
2023-04-04T11:58:18.647Z,32.05
2023-04-04T12:00:48.000Z,31.12
2023-04-04T12:03:18.483Z,30.21
2023-04-04T12:05:47.733Z,31.70
2023-04-04T12:08:16.059Z,30.96
2023-04-04T12:10:44.467Z,30.49
2023-04-04T12:13:13.240Z,29.82
2023-04-04T12:15:41.395Z,29.02
2023-04-04T12:18:11.277Z,29.67
2023-04-04T12:20:41.121Z,28.82
2023-04-04T12:23:09.662Z,28.82
2023-04-04T12:25:40.344Z,28.99
2023-04-04T12:28:08.684Z,29.41
2023-04-04T12:30:36.763Z,29.20
2023-04-04T12:33:04.926Z,30.12
2023-04-04T12:35:34.502Z,31.16
2023-04-04T12:38:03.647Z,29.34
2023-04-04T12:40:33.722Z,30.26
2023-04-04T12:43:02.625Z,28.47
2023-04-04T12:45:30.840Z,27.71
2023-04-04T12:47:59.198Z,29.16
2023-04-04T12:50:29.013Z,30.64
2023-04-04T12:53:23.899Z,31.30
2023-04-04T12:55:50.442Z,30.03
2023-04-04T12:58:19.136Z,31.48
2023-04-04T13:00:47.069Z,30.30
2023-04-04T13:03:15.679Z,29.95
2023-04-04T13:05:44.582Z,28.69
2023-04-04T13:08:13.756Z,29.78
2023-04-04T13:11:00.261Z,29.62
2023-04-04T13:13:35.668Z,29.40
2023-04-04T13:16:04.500Z,28.35
2023-04-04T13:18:38.377Z,29.12
2023-04-04T13:21:08.534Z,28.51
2023-04-04T13:23:39.826Z,29.92
2023-04-04T13:26:08.934Z,29.80
2023-04-04T13:28:37.254Z,30.61
2023-04-04T13:31:05.617Z,31.03
2023-04-04T13:33:33.749Z,29.92
2023-04-04T13:36:01.938Z,28.57
2023-04-04T13:38:30.662Z,28.71
2023-04-04T13:41:00.222Z,28.74
2023-04-04T13:43:28.321Z,29.12
2023-04-04T13:45:56.470Z,29.75
2023-04-04T13:48:24.344Z,28.99
2023-04-04T13:50:53.175Z,28.23
2023-04-04T13:53:21.421Z,27.32
2023-04-04T13:58:21.393Z,26.67
2023-04-04T14:00:49.796Z,28.26
2023-04-04T14:03:18.164Z,28.74
2023-04-04T14:05:46.429Z,27.62
2023-04-04T14:08:14.639Z,27.06
2023-04-04T14:10:42.454Z,27.60
2023-04-04T14:13:10.268Z,28.26
2023-04-04T14:15:40.858Z,27.13
2023-04-04T14:18:08.935Z,26.70
2023-04-04T14:20:37.289Z,26.05
2023-04-04T14:23:05.532Z,24.90
2023-04-04T14:25:33.446Z,24.68
2023-04-04T14:28:01.408Z,26.48
2023-04-04T14:30:29.176Z,25.61
2023-04-04T14:32:58.266Z,25.89
2023-04-04T14:35:26.087Z,25.31
2023-04-04T14:37:55.192Z,25.14
2023-04-04T14:40:23.767Z,24.91
2023-04-04T14:42:51.674Z,28.49
2023-04-04T14:45:19.580Z,28.27
2023-04-04T14:47:47.413Z,27.53
2023-04-04T14:50:16.643Z,27.11
2023-04-04T14:52:44.556Z,26.37
2023-04-04T14:55:12.454Z,27.41
2023-04-04T14:57:57.186Z,27.17
2023-04-04T15:00:28.481Z,27.82
2023-04-04T15:02:56.687Z,26.56
2023-04-04T15:05:27.319Z,26.85
2023-04-04T15:07:55.740Z,25.29
2023-04-04T15:10:24.021Z,25.41
2023-04-04T15:12:51.852Z,26.47
2023-04-04T15:15:20.554Z,26.50
2023-04-04T15:17:49.383Z,25.85
2023-04-04T15:20:18.535Z,25.36
2023-04-04T15:22:47.717Z,26.72
2023-04-04T15:25:15.518Z,27.40
2023-04-04T15:27:43.251Z,26.30
2023-04-04T15:30:11.772Z,27.28
2023-04-04T15:32:39.564Z,26.60
2023-04-04T15:35:08.538Z,27.69
2023-04-04T15:37:36.329Z,27.50
2023-04-04T15:40:06.185Z,26.47
2023-04-04T15:42:33.961Z,26.20
2023-04-04T15:45:01.753Z,26.09
2023-04-04T15:47:29.540Z,25.64
2023-04-04T15:49:57.355Z,25.57
2023-04-04T15:52:25.135Z,24.55
2023-04-04T15:54:53.308Z,25.32
2023-04-04T15:57:22.453Z,26.58
2023-04-04T15:59:50.689Z,26.20
2023-04-04T16:02:18.483Z,27.01
2023-04-04T16:04:46.399Z,25.89
2023-04-04T16:07:14.197Z,25.09
2023-04-04T16:09:42.194Z,24.98
2023-04-04T16:12:09.973Z,24.39
2023-04-04T16:14:39.112Z,25.75
2023-04-04T16:17:06.883Z,28.11
2023-04-04T16:19:34.692Z,29.28
2023-04-04T16:22:02.724Z,28.49
2023-04-04T16:24:30.528Z,28.65
2023-04-04T16:26:58.282Z,29.14
2023-04-04T16:29:26.248Z,29.62
2023-04-04T16:31:56.090Z,27.79
2023-04-04T16:34:23.837Z,27.95
2023-04-04T16:36:51.644Z,27.09
2023-04-04T16:39:19.452Z,27.17
2023-04-04T16:41:47.300Z,26.91
2023-04-04T16:44:15.770Z,28.42
2023-04-04T16:46:43.744Z,28.41
2023-04-04T16:49:12.908Z,26.99
2023-04-04T16:51:40.731Z,27.53
2023-04-04T16:54:08.476Z,28.17
2023-04-04T16:56:36.392Z,27.66
2023-04-04T16:59:04.221Z,27.95
2023-04-04T17:01:32.353Z,28.19
2023-04-04T17:04:00.501Z,28.55
2023-04-04T17:06:29.731Z,28.41
2023-04-04T17:08:57.762Z,28.04
2023-04-04T17:11:25.599Z,28.65
2023-04-04T17:13:53.924Z,28.90
2023-04-04T17:16:23.426Z,29.27
2023-04-04T17:18:51.518Z,29.53
2023-04-04T17:21:19.682Z,29.38
2023-04-04T17:23:49.150Z,29.82
2023-04-04T17:26:17.201Z,30.13
2023-04-04T17:28:44.958Z,29.63
2023-04-04T17:31:12.741Z,30.28
2023-04-04T17:33:41.380Z,30.29
2023-04-04T17:36:09.600Z,30.60
2023-04-04T17:38:39.277Z,30.99
2023-04-04T17:41:08.725Z,31.51
2023-04-04T17:43:36.482Z,31.42
2023-04-04T17:46:06.670Z,32.29
2023-04-04T17:48:36.765Z,33.15
2023-04-04T17:51:06.870Z,33.96
2023-04-04T17:53:35.808Z,33.90
2023-04-04T17:56:03.626Z,34.63
2023-04-04T17:58:32.760Z,35.50
2023-04-04T18:01:02.765Z,35.96
2023-04-04T18:03:30.609Z,36.01
2023-04-04T18:05:58.502Z,36.13
2023-04-04T18:08:26.377Z,36.38
2023-04-04T18:10:54.211Z,36.61
2023-04-04T18:13:22.011Z,36.51
2023-04-04T18:15:51.734Z,36.76
2023-04-04T18:18:21.254Z,36.89
2023-04-04T18:20:49.176Z,36.99
2023-04-04T18:23:17.633Z,37.11
2023-04-04T18:25:45.645Z,37.41
2023-04-04T18:28:13.996Z,37.43
2023-04-04T18:30:42.063Z,37.75
2023-04-04T18:33:12.090Z,37.86
2023-04-04T18:35:39.894Z,38.15
2023-04-04T18:38:07.687Z,38.42
2023-04-04T18:40:35.491Z,38.61
2023-04-04T18:43:03.996Z,39.22
2023-04-04T18:45:39.227Z,39.28
2023-04-04T18:48:08.460Z,39.85
2023-04-04T18:50:38.021Z,39.45
2023-04-04T18:53:05.801Z,39.55
2023-04-04T18:55:33.603Z,40.02
2023-04-04T18:58:01.388Z,40.32
2023-04-04T19:00:29.270Z,40.33
2023-04-04T19:02:57.771Z,40.90
2023-04-04T19:05:25.708Z,40.76
2023-04-04T19:07:55.311Z,41.04
2023-04-04T19:10:23.426Z,41.09
2023-04-04T19:12:51.204Z,41.12
2023-04-04T19:15:19.290Z,41.29
2023-04-04T19:17:47.435Z,40.99
2023-04-04T19:20:15.234Z,41.95
2023-04-04T19:22:43.011Z,41.40
2023-04-04T19:25:12.183Z,41.70
2023-04-04T19:27:40.193Z,42.29
2023-04-04T19:30:34.561Z,42.43
2023-04-04T19:33:03.307Z,42.44
2023-04-04T19:35:53.729Z,42.65
2023-04-04T19:38:24.729Z,43.21
2023-04-04T19:40:57.070Z,42.67
2023-04-04T19:43:25.352Z,42.89
2023-04-04T19:45:54.112Z,43.08
2023-04-04T19:48:44.737Z,43.14
2023-04-04T19:51:42.741Z,43.94
2023-04-04T19:54:15.168Z,44.09
2023-04-04T19:56:46.535Z,44.01
2023-04-04T19:59:46.594Z,44.20
2023-04-04T20:02:34.955Z,44.92
2023-04-04T20:05:03.242Z,44.70
2023-04-04T20:07:31.361Z,45.66
2023-04-04T20:09:59.263Z,45.45
2023-04-04T20:12:29.719Z,45.68
2023-04-04T20:15:00.724Z,46.31
2023-04-04T20:17:29.369Z,45.65
2023-04-04T20:19:57.296Z,45.64
2023-04-04T20:22:26.961Z,46.20
2023-04-04T20:24:54.987Z,45.89
2023-04-04T20:27:25.335Z,46.28
2023-04-04T20:29:55.101Z,46.46
2023-04-04T20:32:23.461Z,45.99
2023-04-04T20:34:51.310Z,46.52
2023-04-04T20:37:22.283Z,46.62
2023-04-04T20:39:54.499Z,47.27
2023-04-04T20:42:40.237Z,47.60
2023-04-04T20:45:36.021Z,47.76
2023-04-04T20:48:07.402Z,47.60
2023-04-04T20:50:45.666Z,47.24
2023-04-04T20:53:19.297Z,48.20
2023-04-04T20:55:47.198Z,48.02
2023-04-04T20:58:28.347Z,48.16
2023-04-04T21:00:58.782Z,48.69
2023-04-04T21:03:37.691Z,48.50
2023-04-04T21:06:14.647Z,48.75
2023-04-04T21:08:47.442Z,48.61
2023-04-04T21:11:22.078Z,48.82
2023-04-04T21:13:50.105Z,49.09
2023-04-04T21:16:23.528Z,48.99
2023-04-04T21:18:57.985Z,49.22
2023-04-04T21:21:26.438Z,49.26
2023-04-04T21:23:55.051Z,49.01
2023-04-04T21:26:31.991Z,49.40
2023-04-04T21:29:01.211Z,49.66
2023-04-04T21:31:36.191Z,49.63
2023-04-04T21:34:12.869Z,49.45
2023-04-04T21:36:41.547Z,49.89
2023-04-04T21:39:12.905Z,49.98
2023-04-04T21:41:41.716Z,50.06
2023-04-04T21:44:10.750Z,50.47
2023-04-04T21:46:41.640Z,50.58
2023-04-04T21:49:09.934Z,50.62
2023-04-04T21:51:38.165Z,50.58
2023-04-04T21:54:06.399Z,50.33
2023-04-04T21:56:34.495Z,50.87
2023-04-04T21:59:04.046Z,50.92
2023-04-04T22:01:32.829Z,51.15
2023-04-04T22:04:03.088Z,51.36
2023-04-04T22:06:31.323Z,51.50
2023-04-04T22:09:02.150Z,51.72
2023-04-04T22:11:30.391Z,51.69
2023-04-04T22:14:04.801Z,52.09
2023-04-04T22:16:37.012Z,51.74
2023-04-04T22:19:07.848Z,51.94
2023-04-04T22:21:36.786Z,52.27
2023-04-04T22:24:06.432Z,52.37
2023-04-04T22:26:34.799Z,52.97
2023-04-04T22:29:05.326Z,52.68
2023-04-04T22:31:35.196Z,52.21
2023-04-04T22:34:04.103Z,52.22
2023-04-04T22:36:34.395Z,52.59
2023-04-04T22:39:02.966Z,52.77
2023-04-04T22:41:30.843Z,52.89
2023-04-04T22:43:59.178Z,52.56
2023-04-04T22:46:29.308Z,52.70
2023-04-04T22:49:06.006Z,53.13
2023-04-04T22:51:45.597Z,53.10
2023-04-04T22:54:16.400Z,52.79
2023-04-04T22:56:44.711Z,53.35
2023-04-04T22:59:12.885Z,52.95
2023-04-04T23:01:41.083Z,53.27
2023-04-04T23:04:09.245Z,53.21
2023-04-04T23:06:38.775Z,53.93
2023-04-04T23:09:07.919Z,53.66
2023-04-04T23:11:36.005Z,54.12
2023-04-04T23:14:08.503Z,53.86
2023-04-04T23:16:36.611Z,54.27
2023-04-04T23:19:05.001Z,54.53
2023-04-04T23:21:32.829Z,54.36
2023-04-04T23:24:02.008Z,54.58
2023-04-04T23:26:29.760Z,54.69
2023-04-04T23:28:57.517Z,54.26
2023-04-04T23:31:25.928Z,54.73
2023-04-04T23:33:53.744Z,54.44
2023-04-04T23:36:21.591Z,55.49
2023-04-04T23:38:49.410Z,55.57
2023-04-04T23:41:18.865Z,55.60
2023-04-04T23:43:46.995Z,55.42
2023-04-04T23:46:15.531Z,54.97
2023-04-04T23:48:43.405Z,55.60
2023-04-04T23:51:12.205Z,55.67
2023-04-04T23:53:39.973Z,55.28
2023-04-04T23:56:08.206Z,56.01
2023-04-04T23:58:38.319Z,55.25
